sensor_id;sensor_type;location;lat;lon;timestamp;P1;durP1;ratioP1;P2;durP2;ratioP2
17310;SDS011;8773;43.300;0.394;2023-06-22T00:00:07;2.95;;;2.80;;
17310;SDS011;8773;43.300;0.394;2023-06-22T00:02:35;2.78;;;2.60;;
17310;SDS011;8773;43.300;0.394;2023-06-22T00:05:03;3.15;;;2.90;;
17310;SDS011;8773;43.300;0.394;2023-06-22T00:07:31;3.22;;;3.03;;
17310;SDS011;8773;43.300;0.394;2023-06-22T00:09:59;3.35;;;3.13;;
17310;SDS011;8773;43.300;0.394;2023-06-22T00:12:26;4.72;;;3.60;;
17310;SDS011;8773;43.300;0.394;2023-06-22T00:14:55;5.15;;;3.50;;
17310;SDS011;8773;43.300;0.394;2023-06-22T00:17:22;2.92;;;2.72;;
17310;SDS011;8773;43.300;0.394;2023-06-22T00:20:08;3.30;;;3.10;;
17310;SDS011;8773;43.300;0.394;2023-06-22T00:22:36;3.20;;;3.00;;
17310;SDS011;8773;43.300;0.394;2023-06-22T00:25:04;3.40;;;3.20;;
17310;SDS011;8773;43.300;0.394;2023-06-22T00:27:33;3.58;;;3.28;;
17310;SDS011;8773;43.300;0.394;2023-06-22T00:30:02;3.42;;;3.15;;
17310;SDS011;8773;43.300;0.394;2023-06-22T00:32:30;4.20;;;3.63;;
17310;SDS011;8773;43.300;0.394;2023-06-22T00:34:58;3.95;;;3.50;;
17310;SDS011;8773;43.300;0.394;2023-06-22T00:37:26;3.75;;;3.03;;
17310;SDS011;8773;43.300;0.394;2023-06-22T00:39:53;4.50;;;3.55;;
17310;SDS011;8773;43.300;0.394;2023-06-22T00:42:20;3.92;;;3.17;;
17310;SDS011;8773;43.300;0.394;2023-06-22T00:44:48;3.88;;;3.45;;
17310;SDS011;8773;43.300;0.394;2023-06-22T00:47:17;3.80;;;3.47;;
17310;SDS011;8773;43.300;0.394;2023-06-22T00:49:45;4.57;;;3.72;;
17310;SDS011;8773;43.300;0.394;2023-06-22T00:52:15;4.63;;;4.18;;
17310;SDS011;8773;43.300;0.394;2023-06-22T00:54:42;4.53;;;4.22;;
17310;SDS011;8773;43.300;0.394;2023-06-22T00:57:10;4.50;;;4.20;;
17310;SDS011;8773;43.300;0.394;2023-06-22T00:59:38;4.45;;;4.15;;
17310;SDS011;8773;43.300;0.394;2023-06-22T01:02:06;3.90;;;3.70;;
17310;SDS011;8773;43.300;0.394;2023-06-22T01:04:35;5.07;;;4.05;;
17310;SDS011;8773;43.300;0.394;2023-06-22T01:07:06;4.50;;;4.20;;
17310;SDS011;8773;43.300;0.394;2023-06-22T01:09:42;4.60;;;4.30;;
17310;SDS011;8773;43.300;0.394;2023-06-22T01:12:16;4.38;;;4.07;;
17310;SDS011;8773;43.300;0.394;2023-06-22T01:14:47;5.03;;;4.72;;
17310;SDS011;8773;43.300;0.394;2023-06-22T01:17:22;4.03;;;3.72;;
17310;SDS011;8773;43.300;0.394;2023-06-22T01:19:54;4.18;;;3.97;;
17310;SDS011;8773;43.300;0.394;2023-06-22T01:22:24;3.72;;;3.42;;
17310;SDS011;8773;43.300;0.394;2023-06-22T01:24:56;4.70;;;3.47;;
17310;SDS011;8773;43.300;0.394;2023-06-22T01:27:38;4.35;;;3.88;;
17310;SDS011;8773;43.300;0.394;2023-06-22T01:30:15;4.05;;;3.85;;
17310;SDS011;8773;43.300;0.394;2023-06-22T01:32:43;4.07;;;3.83;;
17310;SDS011;8773;43.300;0.394;2023-06-22T01:35:11;4.35;;;4.07;;
17310;SDS011;8773;43.300;0.394;2023-06-22T01:37:39;4.00;;;3.70;;
17310;SDS011;8773;43.300;0.394;2023-06-22T01:40:08;3.83;;;3.45;;
17310;SDS011;8773;43.300;0.394;2023-06-22T01:42:36;4.03;;;3.65;;
17310;SDS011;8773;43.300;0.394;2023-06-22T01:45:05;3.47;;;3.28;;
17310;SDS011;8773;43.300;0.394;2023-06-22T01:47:35;3.40;;;3.10;;
17310;SDS011;8773;43.300;0.394;2023-06-22T01:50:03;3.65;;;3.45;;
17310;SDS011;8773;43.300;0.394;2023-06-22T01:52:32;3.47;;;3.20;;
17310;SDS011;8773;43.300;0.394;2023-06-22T01:54:59;4.47;;;3.38;;
17310;SDS011;8773;43.300;0.394;2023-06-22T01:57:27;3.28;;;2.90;;
17310;SDS011;8773;43.300;0.394;2023-06-22T01:59:57;3.40;;;3.20;;
17310;SDS011;8773;43.300;0.394;2023-06-22T02:02:28;3.40;;;3.17;;
17310;SDS011;8773;43.300;0.394;2023-06-22T02:05:06;3.30;;;3.10;;
17310;SDS011;8773;43.300;0.394;2023-06-22T02:07:53;3.50;;;2.90;;
17310;SDS011;8773;43.300;0.394;2023-06-22T02:10:26;3.28;;;3.08;;
17310;SDS011;8773;43.300;0.394;2023-06-22T02:12:56;3.42;;;3.22;;
17310;SDS011;8773;43.300;0.394;2023-06-22T02:15:25;3.40;;;3.20;;
17310;SDS011;8773;43.300;0.394;2023-06-22T02:17:53;3.28;;;3.00;;
17310;SDS011;8773;43.300;0.394;2023-06-22T02:20:23;3.15;;;2.90;;
17310;SDS011;8773;43.300;0.394;2023-06-22T02:22:51;2.75;;;2.58;;
17310;SDS011;8773;43.300;0.394;2023-06-22T02:25:18;3.15;;;2.95;;
17310;SDS011;8773;43.300;0.394;2023-06-22T02:27:46;2.80;;;2.70;;
17310;SDS011;8773;43.300;0.394;2023-06-22T02:30:13;3.53;;;3.22;;
17310;SDS011;8773;43.300;0.394;2023-06-22T02:32:50;3.05;;;2.78;;
17310;SDS011;8773;43.300;0.394;2023-06-22T02:35:18;2.72;;;2.63;;
17310;SDS011;8773;43.300;0.394;2023-06-22T02:37:46;3.05;;;2.88;;
17310;SDS011;8773;43.300;0.394;2023-06-22T02:40:14;2.95;;;2.75;;
17310;SDS011;8773;43.300;0.394;2023-06-22T02:42:41;3.45;;;3.00;;
17310;SDS011;8773;43.300;0.394;2023-06-22T02:45:09;2.88;;;2.60;;
17310;SDS011;8773;43.300;0.394;2023-06-22T02:47:37;3.10;;;3.00;;
17310;SDS011;8773;43.300;0.394;2023-06-22T02:50:04;2.97;;;2.80;;
17310;SDS011;8773;43.300;0.394;2023-06-22T02:52:32;3.40;;;3.10;;
17310;SDS011;8773;43.300;0.394;2023-06-22T02:55:01;2.88;;;2.58;;
17310;SDS011;8773;43.300;0.394;2023-06-22T02:57:29;3.00;;;2.80;;
17310;SDS011;8773;43.300;0.394;2023-06-22T02:59:56;3.22;;;3.00;;
17310;SDS011;8773;43.300;0.394;2023-06-22T03:02:24;3.40;;;3.03;;
17310;SDS011;8773;43.300;0.394;2023-06-22T03:04:51;2.85;;;2.65;;
17310;SDS011;8773;43.300;0.394;2023-06-22T03:07:19;3.20;;;3.00;;
17310;SDS011;8773;43.300;0.394;2023-06-22T03:09:46;3.42;;;3.15;;
17310;SDS011;8773;43.300;0.394;2023-06-22T03:12:15;3.28;;;2.97;;
17310;SDS011;8773;43.300;0.394;2023-06-22T03:14:42;2.67;;;2.47;;
17310;SDS011;8773;43.300;0.394;2023-06-22T03:17:10;3.00;;;2.90;;
17310;SDS011;8773;43.300;0.394;2023-06-22T03:19:37;3.05;;;2.85;;
17310;SDS011;8773;43.300;0.394;2023-06-22T03:22:05;3.05;;;2.88;;
17310;SDS011;8773;43.300;0.394;2023-06-22T03:24:32;2.90;;;2.80;;
17310;SDS011;8773;43.300;0.394;2023-06-22T03:27:00;2.88;;;2.70;;
17310;SDS011;8773;43.300;0.394;2023-06-22T03:29:28;3.67;;;3.38;;
17310;SDS011;8773;43.300;0.394;2023-06-22T03:31:57;3.85;;;3.55;;
17310;SDS011;8773;43.300;0.394;2023-06-22T03:34:25;3.88;;;3.55;;
17310;SDS011;8773;43.300;0.394;2023-06-22T03:36:52;3.20;;;3.00;;
17310;SDS011;8773;43.300;0.394;2023-06-22T03:39:20;2.80;;;2.70;;
17310;SDS011;8773;43.300;0.394;2023-06-22T03:41:47;4.07;;;3.15;;
17310;SDS011;8773;43.300;0.394;2023-06-22T03:44:15;2.92;;;2.72;;
17310;SDS011;8773;43.300;0.394;2023-06-22T03:46:43;3.05;;;2.85;;
17310;SDS011;8773;43.300;0.394;2023-06-22T03:49:11;2.72;;;2.53;;
17310;SDS011;8773;43.300;0.394;2023-06-22T03:51:38;3.67;;;3.00;;
17310;SDS011;8773;43.300;0.394;2023-06-22T03:54:06;2.83;;;2.70;;
17310;SDS011;8773;43.300;0.394;2023-06-22T03:56:33;3.40;;;3.10;;
17310;SDS011;8773;43.300;0.394;2023-06-22T03:59:00;3.40;;;3.17;;
17310;SDS011;8773;43.300;0.394;2023-06-22T04:01:28;3.03;;;2.83;;
17310;SDS011;8773;43.300;0.394;2023-06-22T04:03:57;3.10;;;2.75;;
17310;SDS011;8773;43.300;0.394;2023-06-22T04:06:24;2.72;;;2.55;;
17310;SDS011;8773;43.300;0.394;2023-06-22T04:08:52;2.97;;;2.70;;
17310;SDS011;8773;43.300;0.394;2023-06-22T04:11:19;2.53;;;2.42;;
17310;SDS011;8773;43.300;0.394;2023-06-22T04:13:46;2.90;;;2.70;;
17310;SDS011;8773;43.300;0.394;2023-06-22T04:16:14;4.68;;;2.92;;
17310;SDS011;8773;43.300;0.394;2023-06-22T04:18:41;3.38;;;3.00;;
17310;SDS011;8773;43.300;0.394;2023-06-22T04:21:11;2.95;;;2.83;;
17310;SDS011;8773;43.300;0.394;2023-06-22T04:23:38;3.25;;;2.40;;
17310;SDS011;8773;43.300;0.394;2023-06-22T04:26:05;3.15;;;2.95;;
17310;SDS011;8773;43.300;0.394;2023-06-22T04:28:33;3.15;;;2.85;;
17310;SDS011;8773;43.300;0.394;2023-06-22T04:31:01;3.22;;;3.03;;
17310;SDS011;8773;43.300;0.394;2023-06-22T04:33:29;3.13;;;2.92;;
17310;SDS011;8773;43.300;0.394;2023-06-22T04:35:56;3.00;;;2.80;;
17310;SDS011;8773;43.300;0.394;2023-06-22T04:38:26;2.88;;;2.63;;
17310;SDS011;8773;43.300;0.394;2023-06-22T04:40:54;2.67;;;2.47;;
17310;SDS011;8773;43.300;0.394;2023-06-22T04:43:30;3.63;;;3.00;;
17310;SDS011;8773;43.300;0.394;2023-06-22T04:45:58;2.55;;;2.45;;
17310;SDS011;8773;43.300;0.394;2023-06-22T04:48:25;2.83;;;2.63;;
17310;SDS011;8773;43.300;0.394;2023-06-22T04:50:52;2.60;;;2.50;;
17310;SDS011;8773;43.300;0.394;2023-06-22T04:53:20;2.90;;;2.65;;
17310;SDS011;8773;43.300;0.394;2023-06-22T04:55:49;2.42;;;2.30;;
17310;SDS011;8773;43.300;0.394;2023-06-22T04:58:16;2.97;;;2.67;;
17310;SDS011;8773;43.300;0.394;2023-06-22T05:00:44;2.80;;;2.60;;
17310;SDS011;8773;43.300;0.394;2023-06-22T05:03:11;2.50;;;2.40;;
17310;SDS011;8773;43.300;0.394;2023-06-22T05:05:46;2.88;;;2.72;;
17310;SDS011;8773;43.300;0.394;2023-06-22T05:08:23;3.28;;;2.85;;
17310;SDS011;8773;43.300;0.394;2023-06-22T05:10:52;2.58;;;2.47;;
17310;SDS011;8773;43.300;0.394;2023-06-22T05:13:31;2.80;;;2.60;;
17310;SDS011;8773;43.300;0.394;2023-06-22T05:15:59;2.97;;;2.78;;
17310;SDS011;8773;43.300;0.394;2023-06-22T05:18:26;2.30;;;2.20;;
17310;SDS011;8773;43.300;0.394;2023-06-22T05:20:54;2.65;;;2.45;;
17310;SDS011;8773;43.300;0.394;2023-06-22T05:23:22;2.78;;;2.58;;
17310;SDS011;8773;43.300;0.394;2023-06-22T05:25:49;2.72;;;2.53;;
17310;SDS011;8773;43.300;0.394;2023-06-22T05:28:18;2.70;;;2.58;;
17310;SDS011;8773;43.300;0.394;2023-06-22T05:30:46;2.92;;;2.72;;
17310;SDS011;8773;43.300;0.394;2023-06-22T05:33:13;2.63;;;2.53;;
17310;SDS011;8773;43.300;0.394;2023-06-22T05:35:40;2.72;;;2.53;;
17310;SDS011;8773;43.300;0.394;2023-06-22T05:38:08;2.90;;;2.70;;
17310;SDS011;8773;43.300;0.394;2023-06-22T05:40:35;2.67;;;2.47;;
17310;SDS011;8773;43.300;0.394;2023-06-22T05:43:03;2.85;;;2.75;;
17310;SDS011;8773;43.300;0.394;2023-06-22T05:45:31;4.50;;;3.28;;
17310;SDS011;8773;43.300;0.394;2023-06-22T05:47:59;3.38;;;3.17;;
17310;SDS011;8773;43.300;0.394;2023-06-22T05:50:26;3.38;;;3.17;;
17310;SDS011;8773;43.300;0.394;2023-06-22T05:52:54;3.22;;;3.13;;
17310;SDS011;8773;43.300;0.394;2023-06-22T05:55:21;3.70;;;3.50;;
17310;SDS011;8773;43.300;0.394;2023-06-22T05:57:49;3.42;;;3.20;;
17310;SDS011;8773;43.300;0.394;2023-06-22T06:00:17;3.58;;;3.30;;
17310;SDS011;8773;43.300;0.394;2023-06-22T06:02:46;6.28;;;3.67;;
17310;SDS011;8773;43.300;0.394;2023-06-22T06:05:14;3.88;;;3.65;;
17310;SDS011;8773;43.300;0.394;2023-06-22T06:07:41;3.38;;;3.15;;
17310;SDS011;8773;43.300;0.394;2023-06-22T06:10:09;3.90;;;3.60;;
17310;SDS011;8773;43.300;0.394;2023-06-22T06:12:37;3.30;;;3.10;;
17310;SDS011;8773;43.300;0.394;2023-06-22T06:15:05;4.22;;;3.95;;
17310;SDS011;8773;43.300;0.394;2023-06-22T06:17:36;3.83;;;3.55;;
17310;SDS011;8773;43.300;0.394;2023-06-22T06:20:14;3.30;;;3.08;;
17310;SDS011;8773;43.300;0.394;2023-06-22T06:22:41;3.88;;;3.58;;
17310;SDS011;8773;43.300;0.394;2023-06-22T06:25:09;3.70;;;3.50;;
17310;SDS011;8773;43.300;0.394;2023-06-22T06:27:36;3.97;;;3.65;;
17310;SDS011;8773;43.300;0.394;2023-06-22T06:30:04;4.07;;;3.78;;
17310;SDS011;8773;43.300;0.394;2023-06-22T06:32:33;4.75;;;3.50;;
17310;SDS011;8773;43.300;0.394;2023-06-22T06:35:01;4.13;;;3.83;;
17310;SDS011;8773;43.300;0.394;2023-06-22T06:37:29;5.38;;;4.97;;
17310;SDS011;8773;43.300;0.394;2023-06-22T06:39:56;3.92;;;3.55;;
17310;SDS011;8773;43.300;0.394;2023-06-22T06:42:24;3.67;;;3.42;;
17310;SDS011;8773;43.300;0.394;2023-06-22T06:44:51;3.83;;;3.53;;
17310;SDS011;8773;43.300;0.394;2023-06-22T06:47:19;3.70;;;3.50;;
17310;SDS011;8773;43.300;0.394;2023-06-22T06:49:46;3.53;;;3.22;;
17310;SDS011;8773;43.300;0.394;2023-06-22T06:52:15;3.50;;;3.30;;
17310;SDS011;8773;43.300;0.394;2023-06-22T06:54:43;3.85;;;3.53;;
17310;SDS011;8773;43.300;0.394;2023-06-22T06:57:10;3.88;;;3.67;;
17310;SDS011;8773;43.300;0.394;2023-06-22T06:59:38;3.55;;;3.35;;
17310;SDS011;8773;43.300;0.394;2023-06-22T07:02:05;3.58;;;3.20;;
17310;SDS011;8773;43.300;0.394;2023-06-22T07:04:32;3.38;;;3.17;;
17310;SDS011;8773;43.300;0.394;2023-06-22T07:07:01;3.80;;;3.60;;
17310;SDS011;8773;43.300;0.394;2023-06-22T07:09:30;3.28;;;3.08;;
17310;SDS011;8773;43.300;0.394;2023-06-22T07:11:58;3.42;;;3.13;;
17310;SDS011;8773;43.300;0.394;2023-06-22T07:14:26;3.13;;;2.85;;
17310;SDS011;8773;43.300;0.394;2023-06-22T07:16:53;4.93;;;3.38;;
17310;SDS011;8773;43.300;0.394;2023-06-22T07:19:24;3.13;;;2.92;;
17310;SDS011;8773;43.300;0.394;2023-06-22T07:21:52;3.95;;;3.72;;
17310;SDS011;8773;43.300;0.394;2023-06-22T07:24:19;3.38;;;3.17;;
17310;SDS011;8773;43.300;0.394;2023-06-22T07:26:48;3.70;;;3.50;;
17310;SDS011;8773;43.300;0.394;2023-06-22T07:29:17;3.88;;;3.63;;
17310;SDS011;8773;43.300;0.394;2023-06-22T07:31:44;2.97;;;2.88;;
17310;SDS011;8773;43.300;0.394;2023-06-22T07:34:12;3.47;;;2.80;;
17310;SDS011;8773;43.300;0.394;2023-06-22T07:36:40;3.92;;;3.63;;
17310;SDS011;8773;43.300;0.394;2023-06-22T07:39:07;3.25;;;3.05;;
17310;SDS011;8773;43.300;0.394;2023-06-22T07:41:35;3.67;;;3.47;;
17310;SDS011;8773;43.300;0.394;2023-06-22T07:44:04;3.70;;;3.08;;
17310;SDS011;8773;43.300;0.394;2023-06-22T07:46:31;2.97;;;2.80;;
17310;SDS011;8773;43.300;0.394;2023-06-22T07:48:59;3.30;;;3.13;;
17310;SDS011;8773;43.300;0.394;2023-06-22T07:51:26;3.50;;;3.30;;
17310;SDS011;8773;43.300;0.394;2023-06-22T07:53:54;3.20;;;3.00;;
17310;SDS011;8773;43.300;0.394;2023-06-22T07:56:21;3.80;;;3.42;;
17310;SDS011;8773;43.300;0.394;2023-06-22T07:58:49;3.40;;;3.20;;
17310;SDS011;8773;43.300;0.394;2023-06-22T08:01:17;3.10;;;3.00;;
17310;SDS011;8773;43.300;0.394;2023-06-22T08:03:45;3.55;;;3.25;;
17310;SDS011;8773;43.300;0.394;2023-06-22T08:06:12;3.15;;;2.95;;
17310;SDS011;8773;43.300;0.394;2023-06-22T08:08:40;3.25;;;3.05;;
17310;SDS011;8773;43.300;0.394;2023-06-22T08:11:08;3.28;;;3.08;;
17310;SDS011;8773;43.300;0.394;2023-06-22T08:13:35;3.65;;;3.45;;
17310;SDS011;8773;43.300;0.394;2023-06-22T08:16:03;3.78;;;3.58;;
17310;SDS011;8773;43.300;0.394;2023-06-22T08:18:32;3.58;;;3.28;;
17310;SDS011;8773;43.300;0.394;2023-06-22T08:20:59;3.35;;;3.15;;
17310;SDS011;8773;43.300;0.394;2023-06-22T08:23:29;3.78;;;3.42;;
17310;SDS011;8773;43.300;0.394;2023-06-22T08:25:56;3.67;;;3.47;;
17310;SDS011;8773;43.300;0.394;2023-06-22T08:28:24;3.92;;;3.45;;
17310;SDS011;8773;43.300;0.394;2023-06-22T08:30:51;3.50;;;3.20;;
17310;SDS011;8773;43.300;0.394;2023-06-22T08:33:19;3.90;;;3.60;;
17310;SDS011;8773;43.300;0.394;2023-06-22T08:35:55;4.15;;;3.47;;
17310;SDS011;8773;43.300;0.394;2023-06-22T08:38:23;3.53;;;3.22;;
17310;SDS011;8773;43.300;0.394;2023-06-22T08:40:51;3.67;;;3.38;;
17310;SDS011;8773;43.300;0.394;2023-06-22T08:43:18;3.70;;;3.50;;
17310;SDS011;8773;43.300;0.394;2023-06-22T08:45:46;4.20;;;3.83;;
17310;SDS011;8773;43.300;0.394;2023-06-22T08:48:13;5.25;;;3.67;;
17310;SDS011;8773;43.300;0.394;2023-06-22T08:50:41;3.78;;;3.58;;
17310;SDS011;8773;43.300;0.394;2023-06-22T08:53:10;3.97;;;3.63;;
17310;SDS011;8773;43.300;0.394;2023-06-22T08:55:37;3.92;;;3.60;;
17310;SDS011;8773;43.300;0.394;2023-06-22T08:58:04;4.40;;;4.10;;
17310;SDS011;8773;43.300;0.394;2023-06-22T09:00:32;4.07;;;3.78;;
17310;SDS011;8773;43.300;0.394;2023-06-22T09:02:59;3.75;;;3.40;;
17310;SDS011;8773;43.300;0.394;2023-06-22T09:05:27;3.67;;;3.45;;
17310;SDS011;8773;43.300;0.394;2023-06-22T09:07:55;3.60;;;3.35;;
17310;SDS011;8773;43.300;0.394;2023-06-22T09:10:24;3.95;;;3.72;;
17310;SDS011;8773;43.300;0.394;2023-06-22T09:12:52;3.42;;;3.17;;
17310;SDS011;8773;43.300;0.394;2023-06-22T09:15:20;3.35;;;3.15;;
17310;SDS011;8773;43.300;0.394;2023-06-22T09:17:47;3.47;;;3.28;;
17310;SDS011;8773;43.300;0.394;2023-06-22T09:20:15;3.55;;;3.25;;
17310;SDS011;8773;43.300;0.394;2023-06-22T09:22:42;3.30;;;3.13;;
17310;SDS011;8773;43.300;0.394;2023-06-22T09:25:10;3.78;;;3.47;;
17310;SDS011;8773;43.300;0.394;2023-06-22T09:27:39;3.75;;;3.53;;
17310;SDS011;8773;43.300;0.394;2023-06-22T09:30:07;3.80;;;3.50;;
17310;SDS011;8773;43.300;0.394;2023-06-22T09:32:35;3.30;;;3.20;;
17310;SDS011;8773;43.300;0.394;2023-06-22T09:35:03;3.75;;;3.42;;
17310;SDS011;8773;43.300;0.394;2023-06-22T09:37:32;3.92;;;3.63;;
17310;SDS011;8773;43.300;0.394;2023-06-22T09:39:59;4.53;;;4.20;;
17310;SDS011;8773;43.300;0.394;2023-06-22T09:42:26;4.00;;;3.80;;
17310;SDS011;8773;43.300;0.394;2023-06-22T09:44:55;4.53;;;3.70;;
17310;SDS011;8773;43.300;0.394;2023-06-22T09:47:23;4.90;;;3.47;;
17310;SDS011;8773;43.300;0.394;2023-06-22T09:49:50;6.43;;;3.47;;
17310;SDS011;8773;43.300;0.394;2023-06-22T09:52:17;4.03;;;3.72;;
17310;SDS011;8773;43.300;0.394;2023-06-22T09:54:46;7.00;;;3.95;;
17310;SDS011;8773;43.300;0.394;2023-06-22T09:57:13;5.90;;;5.35;;
17310;SDS011;8773;43.300;0.394;2023-06-22T09:59:40;4.40;;;4.05;;
17310;SDS011;8773;43.300;0.394;2023-06-22T10:02:09;4.70;;;4.30;;
17310;SDS011;8773;43.300;0.394;2023-06-22T10:04:37;4.57;;;4.20;;
17310;SDS011;8773;43.300;0.394;2023-06-22T10:07:05;4.72;;;4.32;;
17310;SDS011;8773;43.300;0.394;2023-06-22T10:09:32;5.05;;;4.65;;
17310;SDS011;8773;43.300;0.394;2023-06-22T10:12:00;4.32;;;4.07;;
17310;SDS011;8773;43.300;0.394;2023-06-22T10:14:27;4.82;;;4.43;;
17310;SDS011;8773;43.300;0.394;2023-06-22T10:16:55;4.65;;;4.28;;
17310;SDS011;8773;43.300;0.394;2023-06-22T10:19:27;5.03;;;4.47;;
17310;SDS011;8773;43.300;0.394;2023-06-22T10:21:54;5.20;;;4.70;;
17310;SDS011;8773;43.300;0.394;2023-06-22T10:24:22;5.65;;;4.72;;
17310;SDS011;8773;43.300;0.394;2023-06-22T10:26:49;5.25;;;4.68;;
17310;SDS011;8773;43.300;0.394;2023-06-22T10:29:16;5.35;;;4.82;;
17310;SDS011;8773;43.300;0.394;2023-06-22T10:31:44;4.20;;;3.90;;
17310;SDS011;8773;43.300;0.394;2023-06-22T10:34:11;4.95;;;4.18;;
17310;SDS011;8773;43.300;0.394;2023-06-22T10:36:40;4.47;;;4.20;;
17310;SDS011;8773;43.300;0.394;2023-06-22T10:39:08;4.68;;;4.38;;
17310;SDS011;8773;43.300;0.394;2023-06-22T10:41:35;4.47;;;4.18;;
17310;SDS011;8773;43.300;0.394;2023-06-22T10:44:02;4.53;;;4.22;;
17310;SDS011;8773;43.300;0.394;2023-06-22T10:46:30;4.70;;;4.28;;
17310;SDS011;8773;43.300;0.394;2023-06-22T10:48:58;4.65;;;4.05;;
17310;SDS011;8773;43.300;0.394;2023-06-22T10:51:25;6.75;;;4.13;;
17310;SDS011;8773;43.300;0.394;2023-06-22T10:53:54;4.47;;;4.07;;
17310;SDS011;8773;43.300;0.394;2023-06-22T10:56:21;4.90;;;4.50;;
17310;SDS011;8773;43.300;0.394;2023-06-22T10:58:49;4.70;;;4.30;;
17310;SDS011;8773;43.300;0.394;2023-06-22T11:01:16;5.00;;;3.95;;
17310;SDS011;8773;43.300;0.394;2023-06-22T11:04:02;4.75;;;4.38;;
17310;SDS011;8773;43.300;0.394;2023-06-22T11:06:30;4.30;;;4.00;;
17310;SDS011;8773;43.300;0.394;2023-06-22T11:08:59;4.47;;;4.07;;
17310;SDS011;8773;43.300;0.394;2023-06-22T11:11:29;4.20;;;3.80;;
17310;SDS011;8773;43.300;0.394;2023-06-22T11:13:57;5.60;;;4.22;;
17310;SDS011;8773;43.300;0.394;2023-06-22T11:16:25;4.25;;;3.85;;
17310;SDS011;8773;43.300;0.394;2023-06-22T11:18:52;4.53;;;4.18;;
17310;SDS011;8773;43.300;0.394;2023-06-22T11:21:20;4.07;;;3.78;;
17310;SDS011;8773;43.300;0.394;2023-06-22T11:23:47;4.55;;;4.15;;
17310;SDS011;8773;43.300;0.394;2023-06-22T11:26:16;5.90;;;3.65;;
17310;SDS011;8773;43.300;0.394;2023-06-22T11:28:43;3.72;;;3.53;;
17310;SDS011;8773;43.300;0.394;2023-06-22T11:31:11;4.70;;;4.25;;
17310;SDS011;8773;43.300;0.394;2023-06-22T11:33:52;4.00;;;3.72;;
17310;SDS011;8773;43.300;0.394;2023-06-22T11:36:20;4.03;;;3.58;;
17310;SDS011;8773;43.300;0.394;2023-06-22T11:38:47;5.22;;;3.88;;
17310;SDS011;8773;43.300;0.394;2023-06-22T11:41:16;3.90;;;3.70;;
17310;SDS011;8773;43.300;0.394;2023-06-22T11:43:43;4.43;;;4.07;;
17310;SDS011;8773;43.300;0.394;2023-06-22T11:46:11;4.65;;;4.35;;
17310;SDS011;8773;43.300;0.394;2023-06-22T11:48:39;4.55;;;4.15;;
17310;SDS011;8773;43.300;0.394;2023-06-22T11:51:06;4.63;;;4.20;;
17310;SDS011;8773;43.300;0.394;2023-06-22T11:53:33;4.80;;;4.30;;
17310;SDS011;8773;43.300;0.394;2023-06-22T11:56:01;5.47;;;4.13;;
17310;SDS011;8773;43.300;0.394;2023-06-22T11:58:30;7.70;;;5.13;;
17310;SDS011;8773;43.300;0.394;2023-06-22T12:00:58;5.95;;;5.30;;
17310;SDS011;8773;43.300;0.394;2023-06-22T12:03:25;8.80;;;4.70;;
17310;SDS011;8773;43.300;0.394;2023-06-22T12:05:53;4.70;;;4.30;;
17310;SDS011;8773;43.300;0.394;2023-06-22T12:08:20;4.47;;;4.10;;
17310;SDS011;8773;43.300;0.394;2023-06-22T12:10:48;5.43;;;4.50;;
17310;SDS011;8773;43.300;0.394;2023-06-22T12:13:16;3.97;;;3.70;;
17310;SDS011;8773;43.300;0.394;2023-06-22T12:15:45;5.10;;;4.15;;
17310;SDS011;8773;43.300;0.394;2023-06-22T12:18:13;5.40;;;4.10;;
17310;SDS011;8773;43.300;0.394;2023-06-22T12:20:40;4.43;;;4.18;;
17310;SDS011;8773;43.300;0.394;2023-06-22T12:23:07;4.60;;;4.20;;
17310;SDS011;8773;43.300;0.394;2023-06-22T12:25:35;4.90;;;4.43;;
17310;SDS011;8773;43.300;0.394;2023-06-22T12:28:02;5.43;;;4.75;;
17310;SDS011;8773;43.300;0.394;2023-06-22T12:30:30;4.55;;;4.20;;
17310;SDS011;8773;43.300;0.394;2023-06-22T12:33:01;7.68;;;6.15;;
17310;SDS011;8773;43.300;0.394;2023-06-22T12:35:28;8.95;;;6.45;;
17310;SDS011;8773;43.300;0.394;2023-06-22T12:38:04;6.05;;;5.45;;
17310;SDS011;8773;43.300;0.394;2023-06-22T12:40:31;6.93;;;6.40;;
17310;SDS011;8773;43.300;0.394;2023-06-22T12:42:59;6.60;;;5.95;;
17310;SDS011;8773;43.300;0.394;2023-06-22T12:45:26;8.73;;;6.07;;
17310;SDS011;8773;43.300;0.394;2023-06-22T12:47:54;7.07;;;5.95;;
17310;SDS011;8773;43.300;0.394;2023-06-22T12:50:21;6.55;;;5.90;;
17310;SDS011;8773;43.300;0.394;2023-06-22T12:52:48;6.35;;;5.82;;
17310;SDS011;8773;43.300;0.394;2023-06-22T12:55:18;5.40;;;5.00;;
17310;SDS011;8773;43.300;0.394;2023-06-22T12:57:45;5.63;;;5.00;;
17310;SDS011;8773;43.300;0.394;2023-06-22T13:00:13;7.00;;;5.18;;
17310;SDS011;8773;43.300;0.394;2023-06-22T13:02:41;6.22;;;5.47;;
17310;SDS011;8773;43.300;0.394;2023-06-22T13:05:08;5.40;;;4.90;;
17310;SDS011;8773;43.300;0.394;2023-06-22T13:07:36;7.00;;;5.07;;
17310;SDS011;8773;43.300;0.394;2023-06-22T13:10:03;5.97;;;5.00;;
17310;SDS011;8773;43.300;0.394;2023-06-22T13:12:33;4.25;;;3.95;;
17310;SDS011;8773;43.300;0.394;2023-06-22T13:15:00;5.15;;;4.63;;
17310;SDS011;8773;43.300;0.394;2023-06-22T13:17:28;4.97;;;4.47;;
17310;SDS011;8773;43.300;0.394;2023-06-22T13:19:55;6.00;;;5.07;;
17310;SDS011;8773;43.300;0.394;2023-06-22T13:22:26;6.22;;;5.10;;
17310;SDS011;8773;43.300;0.394;2023-06-22T13:24:56;5.68;;;5.03;;
17310;SDS011;8773;43.300;0.394;2023-06-22T13:27:23;5.40;;;4.90;;
17310;SDS011;8773;43.300;0.394;2023-06-22T13:29:52;6.63;;;5.18;;
17310;SDS011;8773;43.300;0.394;2023-06-22T13:32:20;4.78;;;4.38;;
17310;SDS011;8773;43.300;0.394;2023-06-22T13:34:47;5.88;;;5.30;;
17310;SDS011;8773;43.300;0.394;2023-06-22T13:37:15;7.65;;;6.95;;
17310;SDS011;8773;43.300;0.394;2023-06-22T13:39:42;6.03;;;5.53;;
17310;SDS011;8773;43.300;0.394;2023-06-22T13:42:09;5.80;;;5.22;;
17310;SDS011;8773;43.300;0.394;2023-06-22T13:44:37;6.25;;;5.70;;
17310;SDS011;8773;43.300;0.394;2023-06-22T13:47:06;5.93;;;5.38;;
17310;SDS011;8773;43.300;0.394;2023-06-22T13:49:34;5.43;;;4.90;;
17310;SDS011;8773;43.300;0.394;2023-06-22T13:52:02;5.95;;;5.45;;
17310;SDS011;8773;43.300;0.394;2023-06-22T13:54:29;5.15;;;4.75;;
17310;SDS011;8773;43.300;0.394;2023-06-22T13:56:59;8.40;;;6.63;;
17310;SDS011;8773;43.300;0.394;2023-06-22T13:59:27;6.35;;;5.07;;
17310;SDS011;8773;43.300;0.394;2023-06-22T14:01:54;6.88;;;4.90;;
17310;SDS011;8773;43.300;0.394;2023-06-22T14:04:24;5.60;;;5.20;;
17310;SDS011;8773;43.300;0.394;2023-06-22T14:06:51;5.85;;;5.28;;
17310;SDS011;8773;43.300;0.394;2023-06-22T14:09:23;5.97;;;5.45;;
17310;SDS011;8773;43.300;0.394;2023-06-22T14:11:50;8.70;;;5.80;;
17310;SDS011;8773;43.300;0.394;2023-06-22T14:14:18;8.50;;;5.43;;
17310;SDS011;8773;43.300;0.394;2023-06-22T14:16:45;5.93;;;5.43;;
17310;SDS011;8773;43.300;0.394;2023-06-22T14:19:13;6.80;;;5.35;;
17310;SDS011;8773;43.300;0.394;2023-06-22T14:21:41;5.25;;;4.75;;
17310;SDS011;8773;43.300;0.394;2023-06-22T14:24:09;6.72;;;5.60;;
17310;SDS011;8773;43.300;0.394;2023-06-22T14:26:37;5.70;;;4.88;;
17310;SDS011;8773;43.300;0.394;2023-06-22T14:29:04;5.90;;;4.93;;
17310;SDS011;8773;43.300;0.394;2023-06-22T14:31:31;4.78;;;4.40;;
17310;SDS011;8773;43.300;0.394;2023-06-22T14:33:59;6.47;;;5.32;;
17310;SDS011;8773;43.300;0.394;2023-06-22T14:36:27;4.93;;;4.53;;
17310;SDS011;8773;43.300;0.394;2023-06-22T14:38:55;5.30;;;4.50;;
17310;SDS011;8773;43.300;0.394;2023-06-22T14:41:23;5.22;;;4.82;;
17310;SDS011;8773;43.300;0.394;2023-06-22T14:43:50;5.35;;;4.93;;
17310;SDS011;8773;43.300;0.394;2023-06-22T14:46:18;4.63;;;4.32;;
17310;SDS011;8773;43.300;0.394;2023-06-22T14:48:46;5.78;;;5.25;;
17310;SDS011;8773;43.300;0.394;2023-06-22T14:51:14;5.47;;;4.93;;
17310;SDS011;8773;43.300;0.394;2023-06-22T14:53:44;5.78;;;5.13;;
17310;SDS011;8773;43.300;0.394;2023-06-22T14:56:14;6.15;;;4.55;;
17310;SDS011;8773;43.300;0.394;2023-06-22T14:58:41;6.00;;;4.95;;
17310;SDS011;8773;43.300;0.394;2023-06-22T15:01:09;4.70;;;4.30;;
17310;SDS011;8773;43.300;0.394;2023-06-22T15:03:37;5.38;;;4.95;;
17310;SDS011;8773;43.300;0.394;2023-06-22T15:06:05;5.43;;;4.93;;